Clifton, Maine
Current Conditions -  °F | °C
As of 11:53 AM on Saturday 20 Dec 2014 (Local Time) from KBGR Reporting Station
Overcast Overcast  
Wind Chill: 11°   Ceiling: 1000
Heat Index: 22°   Visibility: 10mi
Dew Point: 17°   Wind: 10mph
Humidity: 82%   Direction: 20°NNE
Pressure: 30.34"   Gusts: NA
Location:  44.8119°N, 68.5528°W
Report Text: KBGR 201653Z 02009KT 10SM OVC010 M06/M08 A3034 RMK AO2 SLP279 T10561083
Loading
Personal Weather Stations






























Interactive Weather Map New forecast layout! Learn more

10-Day Weather Forecast

Advertisements
Track Severe Weather on mobile